sensor_id;sensor_type;location;lat;lon;timestamp;pressure;altitude;pressure_sealevel;temperature;humidity
15932;BME280;8065;49.520;11.284;2022-11-20T00:02:18;96997.81;;;4.21;86.58
15932;BME280;8065;49.520;11.284;2022-11-20T00:04:45;97003.97;;;4.31;85.77
15932;BME280;8065;49.520;11.284;2022-11-20T00:07:13;97014.78;;;4.43;85.36
15932;BME280;8065;49.520;11.284;2022-11-20T00:09:39;97008.63;;;4.34;84.99
15932;BME280;8065;49.520;11.284;2022-11-20T00:12:06;96992.22;;;4.09;86.93
15932;BME280;8065;49.520;11.284;2022-11-20T00:14:32;96995.69;;;4.05;86.00
15932;BME280;8065;49.520;11.284;2022-11-20T00:16:59;97003.28;;;4.06;86.55
15932;BME280;8065;49.520;11.284;2022-11-20T00:19:25;96998.00;;;3.92;86.04
15932;BME280;8065;49.520;11.284;2022-11-20T00:21:52;96987.28;;;3.89;86.54
15932;BME280;8065;49.520;11.284;2022-11-20T00:24:21;96998.00;;;3.92;86.80
15932;BME280;8065;49.520;11.284;2022-11-20T00:26:48;96994.91;;;4.04;86.83
15932;BME280;8065;49.520;11.284;2022-11-20T00:29:14;96993.66;;;4.02;85.94
15932;BME280;8065;49.520;11.284;2022-11-20T00:31:41;96998.94;;;3.83;87.10
15932;BME280;8065;49.520;11.284;2022-11-20T00:34:08;96996.16;;;3.74;87.79
15932;BME280;8065;49.520;11.284;2022-11-20T00:36:35;97001.91;;;3.76;87.19
15932;BME280;8065;49.520;11.284;2022-11-20T00:39:01;96997.84;;;3.84;86.98
15932;BME280;8065;49.520;11.284;2022-11-20T00:41:29;96997.38;;;3.82;87.21
15932;BME280;8065;49.520;11.284;2022-11-20T00:43:56;96995.81;;;3.81;86.49
15932;BME280;8065;49.520;11.284;2022-11-20T00:46:25;96987.16;;;3.61;87.25
15932;BME280;8065;49.520;11.284;2022-11-20T00:48:52;96989.13;;;3.70;87.77
15932;BME280;8065;49.520;11.284;2022-11-20T00:51:20;96979.34;;;3.75;87.27
15932;BME280;8065;49.520;11.284;2022-11-20T00:53:47;96983.56;;;3.90;87.60
15932;BME280;8065;49.520;11.284;2022-11-20T00:56:16;96993.34;;;4.03;86.72
15932;BME280;8065;49.520;11.284;2022-11-20T00:58:46;96989.50;;;4.14;86.44
15932;BME280;8065;49.520;11.284;2022-11-20T01:01:14;96991.69;;;4.26;86.05
15932;BME280;8065;49.520;11.284;2022-11-20T01:03:42;96985.22;;;4.18;85.79
15932;BME280;8065;49.520;11.284;2022-11-20T01:06:12;96983.47;;;4.14;85.55
15932;BME280;8065;49.520;11.284;2022-11-20T01:08:39;96998.63;;;4.03;86.24
15932;BME280;8065;49.520;11.284;2022-11-20T01:11:07;97000.59;;;4.11;86.15
15932;BME280;8065;49.520;11.284;2022-11-20T01:13:34;96995.75;;;4.18;86.12
15932;BME280;8065;49.520;11.284;2022-11-20T01:16:07;96998.03;;;4.06;85.53
15932;BME280;8065;49.520;11.284;2022-11-20T01:18:34;96997.97;;;4.11;86.42
15932;BME280;8065;49.520;11.284;2022-11-20T01:21:02;97008.31;;;4.21;86.15
15932;BME280;8065;49.520;11.284;2022-11-20T01:23:33;97003.34;;;4.34;86.32
15932;BME280;8065;49.520;11.284;2022-11-20T01:26:01;97007.09;;;4.46;85.68
15932;BME280;8065;49.520;11.284;2022-11-20T01:28:28;97011.44;;;4.37;85.55
15932;BME280;8065;49.520;11.284;2022-11-20T01:30:54;97010.78;;;4.32;86.03
15932;BME280;8065;49.520;11.284;2022-11-20T01:33:22;97004.34;;;4.38;86.50
15932;BME280;8065;49.520;11.284;2022-11-20T01:35:49;97005.13;;;4.38;85.71
15932;BME280;8065;49.520;11.284;2022-11-20T01:38:16;96996.91;;;4.12;85.34
15932;BME280;8065;49.520;11.284;2022-11-20T01:40:42;96989.41;;;4.19;86.15
15932;BME280;8065;49.520;11.284;2022-11-20T01:43:13;96987.69;;;3.96;86.89
15932;BME280;8065;49.520;11.284;2022-11-20T01:46:14;96990.88;;;3.93;86.48
15932;BME280;8065;49.520;11.284;2022-11-20T01:48:47;96992.78;;;4.06;86.51
15932;BME280;8065;49.520;11.284;2022-11-20T01:51:25;96991.78;;;4.02;86.87
15932;BME280;8065;49.520;11.284;2022-11-20T01:53:54;96999.41;;;4.04;86.55
15932;BME280;8065;49.520;11.284;2022-11-20T01:56:22;97003.13;;;4.16;87.09
15932;BME280;8065;49.520;11.284;2022-11-20T01:58:51;97003.88;;;4.03;87.21
15932;BME280;8065;49.520;11.284;2022-11-20T02:01:20;96998.16;;;4.15;86.46
15932;BME280;8065;49.520;11.284;2022-11-20T02:03:49;96993.03;;;4.23;86.29
15932;BME280;8065;49.520;11.284;2022-11-20T02:06:19;96986.00;;;4.19;86.79
15932;BME280;8065;49.520;11.284;2022-11-20T02:08:49;96979.97;;;4.18;87.40
15932;BME280;8065;49.520;11.284;2022-11-20T02:11:15;96974.31;;;4.11;86.91
15932;BME280;8065;49.520;11.284;2022-11-20T02:13:42;96983.25;;;4.10;87.38
15932;BME280;8065;49.520;11.284;2022-11-20T02:16:20;96980.19;;;4.22;86.81
15932;BME280;8065;49.520;11.284;2022-11-20T02:18:48;96986.91;;;4.28;86.64
15932;BME280;8065;49.520;11.284;2022-11-20T02:21:28;96982.22;;;4.39;86.89
15932;BME280;8065;49.520;11.284;2022-11-20T02:24:03;96971.78;;;4.34;86.78
15932;BME280;8065;49.520;11.284;2022-11-20T02:26:33;96974.25;;;4.30;87.24
15932;BME280;8065;49.520;11.284;2022-11-20T02:29:02;96981.75;;;4.37;86.85
15932;BME280;8065;49.520;11.284;2022-11-20T02:31:30;96976.75;;;4.21;87.04
15932;BME280;8065;49.520;11.284;2022-11-20T02:34:00;96978.16;;;4.33;86.37
15932;BME280;8065;49.520;11.284;2022-11-20T02:36:27;96984.84;;;4.39;87.28
15932;BME280;8065;49.520;11.284;2022-11-20T02:38:54;96981.56;;;4.47;86.79
15932;BME280;8065;49.520;11.284;2022-11-20T02:41:30;96985.75;;;4.48;86.58
15932;BME280;8065;49.520;11.284;2022-11-20T02:43:56;96989.06;;;4.53;86.70
15932;BME280;8065;49.520;11.284;2022-11-20T02:46:23;96989.19;;;4.62;86.71
15932;BME280;8065;49.520;11.284;2022-11-20T02:48:49;96984.91;;;4.66;86.58
15932;BME280;8065;49.520;11.284;2022-11-20T02:51:16;96979.44;;;4.63;86.50
15932;BME280;8065;49.520;11.284;2022-11-20T02:53:42;96986.81;;;4.47;86.77
15932;BME280;8065;49.520;11.284;2022-11-20T02:56:09;96981.75;;;4.37;87.44
15932;BME280;8065;49.520;11.284;2022-11-20T02:58:36;96968.22;;;4.30;87.47
15932;BME280;8065;49.520;11.284;2022-11-20T03:01:03;96967.31;;;4.20;86.80
15932;BME280;8065;49.520;11.284;2022-11-20T03:03:30;96968.22;;;4.30;87.25
15932;BME280;8065;49.520;11.284;2022-11-20T03:05:58;96967.03;;;4.36;87.35
15932;BME280;8065;49.520;11.284;2022-11-20T03:08:25;96974.53;;;4.28;87.10
15932;BME280;8065;49.520;11.284;2022-11-20T03:10:51;96977.16;;;4.28;87.79
15932;BME280;8065;49.520;11.284;2022-11-20T03:13:18;96977.66;;;4.44;87.39
15932;BME280;8065;49.520;11.284;2022-11-20T03:15:46;96976.78;;;4.49;86.89
15932;BME280;8065;49.520;11.284;2022-11-20T03:18:12;96975.41;;;4.38;86.87
15932;BME280;8065;49.520;11.284;2022-11-20T03:20:39;96967.53;;;4.24;87.38
15932;BME280;8065;49.520;11.284;2022-11-20T03:23:06;96971.72;;;4.25;87.39
15932;BME280;8065;49.520;11.284;2022-11-20T03:25:32;96963.53;;;4.26;87.40
15932;BME280;8065;49.520;11.284;2022-11-20T03:27:59;96970.06;;;4.29;87.41
15932;BME280;8065;49.520;11.284;2022-11-20T03:30:25;96968.72;;;4.32;87.77
15932;BME280;8065;49.520;11.284;2022-11-20T03:32:54;96960.53;;;4.33;87.92
15932;BME280;8065;49.520;11.284;2022-11-20T03:35:20;96951.94;;;4.27;88.36
15932;BME280;8065;49.520;11.284;2022-11-20T03:37:47;96958.75;;;4.28;88.17
15932;BME280;8065;49.520;11.284;2022-11-20T03:40:14;96962.66;;;4.45;87.67
15932;BME280;8065;49.520;11.284;2022-11-20T03:42:40;96953.50;;;4.28;88.52
15932;BME280;8065;49.520;11.284;2022-11-20T03:45:13;96948.78;;;4.12;88.65
15932;BME280;8065;49.520;11.284;2022-11-20T03:47:39;96951.72;;;4.10;89.01
15932;BME280;8065;49.520;11.284;2022-11-20T03:50:09;96954.72;;;4.04;88.60
15932;BME280;8065;49.520;11.284;2022-11-20T03:52:35;96950.81;;;4.01;89.60
15932;BME280;8065;49.520;11.284;2022-11-20T03:55:02;96953.81;;;3.94;89.24
15932;BME280;8065;49.520;11.284;2022-11-20T03:57:29;96948.25;;;3.96;89.49
15932;BME280;8065;49.520;11.284;2022-11-20T03:59:55;96950.16;;;4.09;89.53
15932;BME280;8065;49.520;11.284;2022-11-20T04:02:22;96952.69;;;4.14;89.25
15932;BME280;8065;49.520;11.284;2022-11-20T04:04:48;96950.34;;;4.13;89.32
15932;BME280;8065;49.520;11.284;2022-11-20T04:07:16;96952.94;;;3.99;89.26
15932;BME280;8065;49.520;11.284;2022-11-20T04:09:43;96950.81;;;4.01;90.63
15932;BME280;8065;49.520;11.284;2022-11-20T04:12:09;96949.47;;;4.04;90.15
15932;BME280;8065;49.520;11.284;2022-11-20T04:14:35;96952.38;;;4.02;89.90
15932;BME280;8065;49.520;11.284;2022-11-20T04:17:03;96949.75;;;4.02;90.38
15932;BME280;8065;49.520;11.284;2022-11-20T04:19:29;96954.44;;;4.05;90.28
15932;BME280;8065;49.520;11.284;2022-11-20T04:21:56;96948.59;;;4.08;89.83
15932;BME280;8065;49.520;11.284;2022-11-20T04:24:23;96943.34;;;4.08;90.27
15932;BME280;8065;49.520;11.284;2022-11-20T04:26:50;96941.78;;;4.07;89.82
15932;BME280;8065;49.520;11.284;2022-11-20T04:29:16;96943.41;;;3.71;89.54
15932;BME280;8065;49.520;11.284;2022-11-20T04:31:43;96943.31;;;3.76;91.17
15932;BME280;8065;49.520;11.284;2022-11-20T04:34:11;96938.41;;;3.88;90.26
15932;BME280;8065;49.520;11.284;2022-11-20T04:36:37;96936.88;;;4.01;90.50
15932;BME280;8065;49.520;11.284;2022-11-20T04:39:05;96940.72;;;4.08;89.44
15932;BME280;8065;49.520;11.284;2022-11-20T04:41:35;96940.22;;;4.06;89.48
15932;BME280;8065;49.520;11.284;2022-11-20T04:44:03;96933.47;;;4.00;90.13
15932;BME280;8065;49.520;11.284;2022-11-20T04:46:32;96944.53;;;4.16;89.45
15932;BME280;8065;49.520;11.284;2022-11-20T04:48:59;96937.91;;;4.18;89.26
15932;BME280;8065;49.520;11.284;2022-11-20T04:51:25;96940.03;;;4.16;89.29
15932;BME280;8065;49.520;11.284;2022-11-20T04:53:52;96935.44;;;4.08;89.33
15932;BME280;8065;49.520;11.284;2022-11-20T04:56:19;96933.59;;;4.09;90.19
15932;BME280;8065;49.520;11.284;2022-11-20T04:58:47;96939.22;;;3.70;91.37
15932;BME280;8065;49.520;11.284;2022-11-20T05:01:15;96933.22;;;3.13;94.42
15932;BME280;8065;49.520;11.284;2022-11-20T05:03:43;96925.19;;;3.04;96.06
15932;BME280;8065;49.520;11.284;2022-11-20T05:06:11;96923.78;;;3.12;96.31
15932;BME280;8065;49.520;11.284;2022-11-20T05:08:38;96937.03;;;3.02;96.09
15932;BME280;8065;49.520;11.284;2022-11-20T05:11:06;96929.66;;;3.04;95.89
15932;BME280;8065;49.520;11.284;2022-11-20T05:13:33;96935.34;;;3.48;95.27
15932;BME280;8065;49.520;11.284;2022-11-20T05:16:06;96926.75;;;3.94;91.19
15932;BME280;8065;49.520;11.284;2022-11-20T05:18:34;96925.81;;;3.52;92.71
15932;BME280;8065;49.520;11.284;2022-11-20T05:21:00;96925.56;;;3.16;95.84
15932;BME280;8065;49.520;11.284;2022-11-20T05:23:28;96933.66;;;3.20;95.27
15932;BME280;8065;49.520;11.284;2022-11-20T05:25:56;96930.38;;;3.09;96.31
15932;BME280;8065;49.520;11.284;2022-11-20T05:28:23;96932.66;;;3.16;96.18
15932;BME280;8065;49.520;11.284;2022-11-20T05:30:50;96933.78;;;3.10;96.34
15932;BME280;8065;49.520;11.284;2022-11-20T05:33:18;96929.41;;;3.24;96.34
15932;BME280;8065;49.520;11.284;2022-11-20T05:35:45;96924.50;;;3.17;96.52
15932;BME280;8065;49.520;11.284;2022-11-20T05:38:11;96920.38;;;3.30;96.61
15932;BME280;8065;49.520;11.284;2022-11-20T05:40:38;96922.72;;;3.32;96.02
15932;BME280;8065;49.520;11.284;2022-11-20T05:43:04;96917.69;;;3.35;95.93
15932;BME280;8065;49.520;11.284;2022-11-20T05:45:31;96918.75;;;3.34;95.85
15932;BME280;8065;49.520;11.284;2022-11-20T05:47:58;96911.31;;;3.22;96.61
15932;BME280;8065;49.520;11.284;2022-11-20T05:50:26;96912.38;;;3.21;96.41
15932;BME280;8065;49.520;11.284;2022-11-20T05:52:53;96912.88;;;3.23;96.39
15932;BME280;8065;49.520;11.284;2022-11-20T05:55:20;96913.59;;;3.29;95.97
15932;BME280;8065;49.520;11.284;2022-11-20T05:57:46;96911.81;;;3.06;96.01
15932;BME280;8065;49.520;11.284;2022-11-20T06:00:13;96899.25;;;3.21;95.61
15932;BME280;8065;49.520;11.284;2022-11-20T06:02:40;96911.72;;;3.11;95.94
15932;BME280;8065;49.520;11.284;2022-11-20T06:05:07;96908.41;;;3.24;96.57
15932;BME280;8065;49.520;11.284;2022-11-20T06:07:35;96917.47;;;3.13;97.12
15932;BME280;8065;49.520;11.284;2022-11-20T06:10:02;96910.09;;;3.15;96.66
15932;BME280;8065;49.520;11.284;2022-11-20T06:12:31;96905.84;;;3.19;96.16
15932;BME280;8065;49.520;11.284;2022-11-20T06:14:57;96909.03;;;3.16;97.06
15932;BME280;8065;49.520;11.284;2022-11-20T06:17:24;96908.81;;;3.12;97.27
15932;BME280;8065;49.520;11.284;2022-11-20T06:19:50;96907.91;;;3.22;96.50
15932;BME280;8065;49.520;11.284;2022-11-20T06:22:16;96905.69;;;3.29;97.48
15932;BME280;8065;49.520;11.284;2022-11-20T06:24:44;96914.16;;;3.58;95.84
15932;BME280;8065;49.520;11.284;2022-11-20T06:27:11;96903.00;;;3.34;96.66
15932;BME280;8065;49.520;11.284;2022-11-20T06:29:37;96914.00;;;3.36;97.03
15932;BME280;8065;49.520;11.284;2022-11-20T06:32:04;96911.38;;;3.36;96.90
15932;BME280;8065;49.520;11.284;2022-11-20T06:34:30;96907.06;;;3.26;96.21
15932;BME280;8065;49.520;11.284;2022-11-20T06:36:56;96907.50;;;3.47;97.27
15932;BME280;8065;49.520;11.284;2022-11-20T06:39:23;96903.34;;;3.46;95.85
15932;BME280;8065;49.520;11.284;2022-11-20T06:41:51;96911.81;;;3.43;96.38
15932;BME280;8065;49.520;11.284;2022-11-20T06:44:17;96913.53;;;3.48;97.25
15932;BME280;8065;49.520;11.284;2022-11-20T06:46:44;96908.63;;;3.60;97.07
15932;BME280;8065;49.520;11.284;2022-11-20T06:49:10;96911.06;;;3.56;96.58
15932;BME280;8065;49.520;11.284;2022-11-20T06:51:36;96920.22;;;3.59;96.26
15932;BME280;8065;49.520;11.284;2022-11-20T06:54:03;96923.25;;;3.66;96.65
15932;BME280;8065;49.520;11.284;2022-11-20T06:56:30;96923.63;;;3.59;96.76
15932;BME280;8065;49.520;11.284;2022-11-20T06:58:58;96925.25;;;3.55;96.49
15932;BME280;8065;49.520;11.284;2022-11-20T07:01:24;96925.66;;;3.62;97.44
15932;BME280;8065;49.520;11.284;2022-11-20T07:03:50;96919.28;;;3.69;96.14
15932;BME280;8065;49.520;11.284;2022-11-20T07:06:17;96922.47;;;3.66;96.35
15932;BME280;8065;49.520;11.284;2022-11-20T07:08:43;96926.50;;;3.77;97.08
15932;BME280;8065;49.520;11.284;2022-11-20T07:11:11;96924.84;;;3.81;95.44
15932;BME280;8065;49.520;11.284;2022-11-20T07:13:38;96930.03;;;3.86;95.39
15932;BME280;8065;49.520;11.284;2022-11-20T07:16:07;96938.31;;;3.93;95.66
15932;BME280;8065;49.520;11.284;2022-11-20T07:18:34;96928.22;;;4.00;95.70
15932;BME280;8065;49.520;11.284;2022-11-20T07:21:00;96926.63;;;3.85;94.43
15932;BME280;8065;49.520;11.284;2022-11-20T07:23:27;96924.69;;;3.91;95.98
15932;BME280;8065;49.520;11.284;2022-11-20T07:25:54;96926.09;;;4.02;95.79
15932;BME280;8065;49.520;11.284;2022-11-20T07:28:20;96927.94;;;4.02;95.91
15932;BME280;8065;49.520;11.284;2022-11-20T07:30:49;96934.91;;;3.92;93.94
15932;BME280;8065;49.520;11.284;2022-11-20T07:33:17;96936.84;;;3.87;95.72
15932;BME280;8065;49.520;11.284;2022-11-20T07:35:44;96939.31;;;3.97;96.08
15932;BME280;8065;49.520;11.284;2022-11-20T07:38:10;96933.00;;;3.98;95.31
15932;BME280;8065;49.520;11.284;2022-11-20T07:40:36;96936.84;;;4.60;92.62
15932;BME280;8065;49.520;11.284;2022-11-20T07:43:03;96936.03;;;4.05;93.60
15932;BME280;8065;49.520;11.284;2022-11-20T07:45:29;96939.97;;;3.89;95.97
15932;BME280;8065;49.520;11.284;2022-11-20T07:47:56;96937.41;;;3.84;96.32
15932;BME280;8065;49.520;11.284;2022-11-20T07:50:24;96933.72;;;3.85;96.39
15932;BME280;8065;49.520;11.284;2022-11-20T07:52:50;96941.53;;;3.90;96.83
15932;BME280;8065;49.520;11.284;2022-11-20T07:55:17;96939.75;;;3.85;95.67
15932;BME280;8065;49.520;11.284;2022-11-20T07:57:43;96929.72;;;4.20;95.28
15932;BME280;8065;49.520;11.284;2022-11-20T08:00:11;96938.31;;;4.67;92.26
15932;BME280;8065;49.520;11.284;2022-11-20T08:02:38;96937.72;;;4.70;91.76
15932;BME280;8065;49.520;11.284;2022-11-20T08:05:05;96941.81;;;4.76;92.31
15932;BME280;8065;49.520;11.284;2022-11-20T08:07:36;96940.66;;;4.82;91.28
15932;BME280;8065;49.520;11.284;2022-11-20T08:10:03;96935.09;;;4.83;90.99
15932;BME280;8065;49.520;11.284;2022-11-20T08:12:30;96936.84;;;4.88;91.92
15932;BME280;8065;49.520;11.284;2022-11-20T08:15:14;96932.16;;;4.99;91.33
15932;BME280;8065;49.520;11.284;2022-11-20T08:17:41;96931.50;;;4.93;90.95
15932;BME280;8065;49.520;11.284;2022-11-20T08:20:08;96941.81;;;4.89;91.50
15932;BME280;8065;49.520;11.284;2022-11-20T08:22:36;96944.34;;;4.94;90.99
15932;BME280;8065;49.520;11.284;2022-11-20T08:25:03;96932.84;;;4.90;90.88
15932;BME280;8065;49.520;11.284;2022-11-20T08:27:31;96935.00;;;4.88;90.65
15932;BME280;8065;49.520;11.284;2022-11-20T08:29:57;96930.31;;;4.85;91.29
15932;BME280;8065;49.520;11.284;2022-11-20T08:32:24;96940.25;;;5.02;91.44
15932;BME280;8065;49.520;11.284;2022-11-20T08:34:50;96933.25;;;4.98;90.87
15932;BME280;8065;49.520;11.284;2022-11-20T08:37:17;96940.25;;;4.88;91.11
15932;BME280;8065;49.520;11.284;2022-11-20T08:39:45;96935.00;;;4.88;91.03
15932;BME280;8065;49.520;11.284;2022-11-20T08:42:12;96938.50;;;4.84;91.53
15932;BME280;8065;49.520;11.284;2022-11-20T08:44:38;96935.47;;;4.90;91.35
15932;BME280;8065;49.520;11.284;2022-11-20T08:47:04;96944.75;;;5.02;90.89
15932;BME280;8065;49.520;11.284;2022-11-20T08:49:31;96953.13;;;4.76;92.09
15932;BME280;8065;49.520;11.284;2022-11-20T08:51:57;96943.00;;;4.83;91.42
15932;BME280;8065;49.520;11.284;2022-11-20T08:54:24;96939.28;;;4.84;91.51
15932;BME280;8065;49.520;11.284;2022-11-20T08:56:51;96935.41;;;4.82;90.91
15932;BME280;8065;49.520;11.284;2022-11-20T08:59:18;96939.28;;;4.84;91.14
15932;BME280;8065;49.520;11.284;2022-11-20T09:01:44;96937.34;;;4.90;90.98
15932;BME280;8065;49.520;11.284;2022-11-20T09:04:11;96942.69;;;4.99;91.15
15932;BME280;8065;49.520;11.284;2022-11-20T09:06:39;96940.47;;;4.92;91.44
15932;BME280;8065;49.520;11.284;2022-11-20T09:09:06;96941.53;;;4.91;91.25
15932;BME280;8065;49.520;11.284;2022-11-20T09:11:32;96932.47;;;4.83;91.53
15932;BME280;8065;49.520;11.284;2022-11-20T09:14:00;96937.13;;;5.00;91.24
15932;BME280;8065;49.520;11.284;2022-11-20T09:16:27;96927.09;;;4.88;91.58
15932;BME280;8065;49.520;11.284;2022-11-20T09:18:54;96927.00;;;4.93;91.54
15932;BME280;8065;49.520;11.284;2022-11-20T09:21:20;96928.56;;;4.94;91.56
15932;BME280;8065;49.520;11.284;2022-11-20T09:23:48;96921.91;;;5.11;97.17
15932;BME280;8065;49.520;11.284;2022-11-20T09:26:14;96920.72;;;5.17;94.11
15932;BME280;8065;49.520;11.284;2022-11-20T09:28:41;96919.69;;;5.26;92.85
15932;BME280;8065;49.520;11.284;2022-11-20T09:31:21;96921.50;;;5.17;91.78
15932;BME280;8065;49.520;11.284;2022-11-20T09:33:48;96915.81;;;5.24;92.04
15932;BME280;8065;49.520;11.284;2022-11-20T09:36:14;96920.00;;;5.25;91.71
15932;BME280;8065;49.520;11.284;2022-11-20T09:38:42;96928.50;;;5.22;91.57
15932;BME280;8065;49.520;11.284;2022-11-20T09:41:25;96915.81;;;5.24;91.12
15932;BME280;8065;49.520;11.284;2022-11-20T09:44:02;96916.41;;;5.21;91.48
15932;BME280;8065;49.520;11.284;2022-11-20T09:46:37;96911.75;;;5.18;90.74
15932;BME280;8065;49.520;11.284;2022-11-20T09:49:21;96912.81;;;5.17;92.03
15932;BME280;8065;49.520;11.284;2022-11-20T09:51:56;96914.88;;;5.20;91.42
15932;BME280;8065;49.520;11.284;2022-11-20T09:54:27;96908.03;;;5.19;91.77
15932;BME280;8065;49.520;11.284;2022-11-20T09:56:59;96907.41;;;5.22;91.76
15932;BME280;8065;49.520;11.284;2022-11-20T09:59:32;96909.94;;;5.27;91.29
15932;BME280;8065;49.520;11.284;2022-11-20T10:02:03;96911.88;;;5.35;91.21
15932;BME280;8065;49.520;11.284;2022-11-20T10:04:33;96913.53;;;5.31;91.00
15932;BME280;8065;49.520;11.284;2022-11-20T10:07:06;96908.16;;;5.36;90.90
15932;BME280;8065;49.520;11.284;2022-11-20T10:09:37;96916.06;;;5.36;90.83
15932;BME280;8065;49.520;11.284;2022-11-20T10:12:14;96903.84;;;5.40;91.05
15932;BME280;8065;49.520;11.284;2022-11-20T10:14:54;96908.81;;;5.42;90.12
15932;BME280;8065;49.520;11.284;2022-11-20T10:17:38;96899.81;;;5.20;90.65
15932;BME280;8065;49.520;11.284;2022-11-20T10:20:16;96898.00;;;5.43;90.87
15932;BME280;8065;49.520;11.284;2022-11-20T10:22:58;96900.56;;;5.35;90.61
15932;BME280;8065;49.520;11.284;2022-11-20T10:25:35;96893.44;;;5.35;91.05
15932;BME280;8065;49.520;11.284;2022-11-20T10:28:17;96900.91;;;5.42;90.61
15932;BME280;8065;49.520;11.284;2022-11-20T10:30:54;96901.88;;;5.46;90.26
15932;BME280;8065;49.520;11.284;2022-11-20T10:33:26;96893.69;;;5.47;90.37
15932;BME280;8065;49.520;11.284;2022-11-20T10:35:59;96895.25;;;5.48;90.67
15932;BME280;8065;49.520;11.284;2022-11-20T10:38:31;96900.69;;;4.80;93.63
15932;BME280;8065;49.520;11.284;2022-11-20T10:41:02;96893.69;;;4.61;95.58
15932;BME280;8065;49.520;11.284;2022-11-20T10:43:43;96893.59;;;4.53;95.77
15932;BME280;8065;49.520;11.284;2022-11-20T10:46:15;96895.44;;;4.39;95.91
15932;BME280;8065;49.520;11.284;2022-11-20T10:48:45;96887.72;;;4.83;94.97
15932;BME280;8065;49.520;11.284;2022-11-20T10:51:18;96884.97;;;5.24;92.35
15932;BME280;8065;49.520;11.284;2022-11-20T10:53:55;96878.94;;;5.24;91.93
15932;BME280;8065;49.520;11.284;2022-11-20T10:56:31;96881.28;;;5.25;91.46
15932;BME280;8065;49.520;11.284;2022-11-20T10:59:08;96888.63;;;4.65;94.54
15932;BME280;8065;49.520;11.284;2022-11-20T11:01:40;96878.88;;;4.38;95.87
15932;BME280;8065;49.520;11.284;2022-11-20T11:04:23;96870.34;;;4.33;96.33
15932;BME280;8065;49.520;11.284;2022-11-20T11:06:56;96877.13;;;4.34;97.55
15932;BME280;8065;49.520;11.284;2022-11-20T11:09:32;96866.03;;;4.37;97.29
15932;BME280;8065;49.520;11.284;2022-11-20T11:11:58;96868.84;;;4.40;96.90
15932;BME280;8065;49.520;11.284;2022-11-20T11:14:25;96871.09;;;4.47;97.34
15932;BME280;8065;49.520;11.284;2022-11-20T11:16:54;96866.69;;;4.56;97.21
15932;BME280;8065;49.520;11.284;2022-11-20T11:19:22;96864.47;;;4.63;96.53
15932;BME280;8065;49.520;11.284;2022-11-20T11:21:50;96853.34;;;4.66;96.89
15932;BME280;8065;49.520;11.284;2022-11-20T11:24:20;96863.38;;;4.64;96.68
15932;BME280;8065;49.520;11.284;2022-11-20T11:26:55;96861.03;;;4.76;96.38
15932;BME280;8065;49.520;11.284;2022-11-20T11:29:23;96887.25;;;4.81;96.29
15932;BME280;8065;49.520;11.284;2022-11-20T11:32:03;96919.41;;;4.78;95.56
15932;BME280;8065;49.520;11.284;2022-11-20T11:34:30;96918.81;;;4.81;95.60
15932;BME280;8065;49.520;11.284;2022-11-20T11:36:58;96909.38;;;4.80;95.61
15932;BME280;8065;49.520;11.284;2022-11-20T11:39:27;96907.44;;;4.72;95.78
15932;BME280;8065;49.520;11.284;2022-11-20T11:41:55;96897.38;;;4.74;95.53
15932;BME280;8065;49.520;11.284;2022-11-20T11:44:24;96885.97;;;4.79;95.19
15932;BME280;8065;49.520;11.284;2022-11-20T11:47:11;96870.88;;;4.84;95.35
15932;BME280;8065;49.520;11.284;2022-11-20T11:49:43;96884.28;;;4.97;95.65
15932;BME280;8065;49.520;11.284;2022-11-20T11:52:12;96880.41;;;4.94;95.82
15932;BME280;8065;49.520;11.284;2022-11-20T11:54:46;96875.53;;;4.87;95.95
15932;BME280;8065;49.520;11.284;2022-11-20T11:57:17;96875.75;;;4.77;95.85
15932;BME280;8065;49.520;11.284;2022-11-20T11:59:59;96875.94;;;4.81;96.07
15932;BME280;8065;49.520;11.284;2022-11-20T12:02:36;96880.31;;;4.85;95.87
15932;BME280;8065;49.520;11.284;2022-11-20T12:05:14;96872.41;;;4.85;96.72
15932;BME280;8065;49.520;11.284;2022-11-20T12:07:45;96866.47;;;4.93;96.61
15932;BME280;8065;49.520;11.284;2022-11-20T12:10:17;96868.28;;;5.07;96.57
15932;BME280;8065;49.520;11.284;2022-11-20T12:12:49;96865.28;;;5.22;97.13
15932;BME280;8065;49.520;11.284;2022-11-20T12:15:25;96863.69;;;5.35;96.50
15932;BME280;8065;49.520;11.284;2022-11-20T12:17:52;96867.16;;;5.44;95.51
15932;BME280;8065;49.520;11.284;2022-11-20T12:20:22;96866.09;;;5.45;95.88
15932;BME280;8065;49.520;11.284;2022-11-20T12:22:56;96874.16;;;5.48;95.29
15932;BME280;8065;49.520;11.284;2022-11-20T12:25:28;96884.47;;;5.58;95.26
15932;BME280;8065;49.520;11.284;2022-11-20T12:28:07;96886.03;;;5.59;95.00
15932;BME280;8065;49.520;11.284;2022-11-20T12:30:41;96875.72;;;5.49;93.80
15932;BME280;8065;49.520;11.284;2022-11-20T12:33:47;96870.75;;;5.48;94.99
15932;BME280;8065;49.520;11.284;2022-11-20T12:36:27;96862.25;;;5.51;94.86
15932;BME280;8065;49.520;11.284;2022-11-20T12:39:11;96866.75;;;5.50;94.84
15932;BME280;8065;49.520;11.284;2022-11-20T12:41:50;96866.13;;;5.53;94.70
15932;BME280;8065;49.520;11.284;2022-11-20T12:45:00;96872.19;;;5.54;94.43
15932;BME280;8065;49.520;11.284;2022-11-20T12:48:05;96862.91;;;5.56;94.87
15932;BME280;8065;49.520;11.284;2022-11-20T12:50:47;96873.81;;;5.64;95.24
15932;BME280;8065;49.520;11.284;2022-11-20T12:53:25;96869.78;;;5.66;94.85
15932;BME280;8065;49.520;11.284;2022-11-20T12:55:58;96858.94;;;5.68;94.56
15932;BME280;8065;49.520;11.284;2022-11-20T12:58:35;96858.34;;;5.71;94.99
15932;BME280;8065;49.520;11.284;2022-11-20T13:01:24;96850.44;;;5.71;94.90
15932;BME280;8065;49.520;11.284;2022-11-20T13:04:15;96853.56;;;5.73;94.97
15932;BME280;8065;49.520;11.284;2022-11-20T13:06:45;96858.03;;;5.72;94.76
15932;BME280;8065;49.520;11.284;2022-11-20T13:09:14;96850.34;;;5.53;94.27
15932;BME280;8065;49.520;11.284;2022-11-20T13:11:43;96852.50;;;5.51;94.95
15932;BME280;8065;49.520;11.284;2022-11-20T13:14:19;96853.97;;;5.44;95.21
15932;BME280;8065;49.520;11.284;2022-11-20T13:16:54;96843.75;;;5.42;95.22
15932;BME280;8065;49.520;11.284;2022-11-20T13:19:24;96855.78;;;5.35;95.36
15932;BME280;8065;49.520;11.284;2022-11-20T13:21:51;96858.22;;;5.31;95.61
15932;BME280;8065;49.520;11.284;2022-11-20T13:24:24;96847.88;;;5.35;95.84